createdAt,value
2022-12-20T00:04:38.627Z,9.49
2022-12-20T00:09:41.215Z,9.68
2022-12-20T00:14:43.575Z,9.65
2022-12-20T00:19:46.044Z,9.29
2022-12-20T00:24:48.296Z,9.37
2022-12-20T00:29:57.980Z,9.48
2022-12-20T00:35:00.359Z,9.40
2022-12-20T00:40:02.737Z,9.32
2022-12-20T00:45:05.578Z,9.20
2022-12-20T00:50:08.402Z,9.43
2022-12-20T01:00:29.976Z,9.34
2022-12-20T01:05:32.447Z,9.24
2022-12-20T01:10:34.808Z,9.23
2022-12-20T01:15:37.273Z,9.31
2022-12-20T01:20:41.978Z,9.14
2022-12-20T01:25:47.988Z,9.27
2022-12-20T01:30:50.241Z,9.37
2022-12-20T01:36:17.255Z,9.30
2022-12-20T01:41:21.482Z,9.32
2022-12-20T01:46:26.532Z,9.30
2022-12-20T01:51:31.341Z,9.23
2022-12-20T01:56:34.103Z,9.32
2022-12-20T02:01:39.021Z,9.42
2022-12-20T02:06:41.424Z,9.26
2022-12-20T02:12:01.633Z,9.37
2022-12-20T02:17:24.833Z,9.40
2022-12-20T02:22:34.605Z,9.27
2022-12-20T02:28:15.443Z,9.16
2022-12-20T02:33:19.916Z,9.30
2022-12-20T02:38:30.153Z,9.35
2022-12-20T02:43:51.588Z,9.33
2022-12-20T02:49:00.661Z,9.25
2022-12-20T02:54:03.349Z,9.28
2022-12-20T02:59:29.443Z,9.21
2022-12-20T03:04:35.906Z,9.30
2022-12-20T03:09:44.710Z,9.24
2022-12-20T03:14:47.987Z,9.05
2022-12-20T03:19:50.992Z,8.98
2022-12-20T03:24:53.643Z,9.16
2022-12-20T03:29:59.076Z,9.17
2022-12-20T03:35:01.384Z,9.07
2022-12-20T03:40:04.359Z,8.92
2022-12-20T03:45:07.412Z,9.17
2022-12-20T03:50:14.466Z,8.83
2022-12-20T03:55:17.059Z,9.06
2022-12-20T04:00:21.153Z,9.05
2022-12-20T04:11:02.313Z,8.88
2022-12-20T04:16:06.225Z,8.92
2022-12-20T04:21:09.084Z,8.64
2022-12-20T04:26:12.366Z,8.66
2022-12-20T04:36:37.520Z,9.09
2022-12-20T04:41:40.213Z,8.72
2022-12-20T04:46:43.149Z,8.91
2022-12-20T04:57:06.259Z,8.94
2022-12-20T05:02:09.364Z,8.87
2022-12-20T05:07:15.257Z,9.18
2022-12-20T05:12:17.852Z,8.99
2022-12-20T05:17:20.929Z,9.02
2022-12-20T05:22:41.918Z,8.95
2022-12-20T05:27:44.238Z,8.93
2022-12-20T05:38:09.463Z,8.84
2022-12-20T05:43:14.060Z,8.90
2022-12-20T05:48:17.959Z,8.96
2022-12-20T05:53:20.391Z,8.85
2022-12-20T05:58:22.886Z,8.77
2022-12-20T06:03:25.916Z,8.73
2022-12-20T06:08:28.487Z,8.84
2022-12-20T06:13:31.001Z,8.80
2022-12-20T06:18:36.629Z,8.69
2022-12-20T06:23:38.885Z,8.74
2022-12-20T06:28:43.783Z,8.69
2022-12-20T06:33:46.066Z,8.61
2022-12-20T06:38:49.083Z,8.81
2022-12-20T06:43:54.298Z,8.58
2022-12-20T06:54:21.326Z,8.96
2022-12-20T07:04:45.658Z,8.96
2022-12-20T07:09:47.889Z,8.99
2022-12-20T07:14:50.415Z,9.09
2022-12-20T07:19:52.678Z,8.96
2022-12-20T07:24:54.950Z,9.14
2022-12-20T07:30:00.197Z,9.07
2022-12-20T07:35:02.582Z,9.10
2022-12-20T07:40:06.457Z,9.17
2022-12-20T07:45:09.222Z,9.24
2022-12-20T07:50:13.739Z,9.32
2022-12-20T08:00:37.912Z,9.44
2022-12-20T08:05:44.742Z,9.49
2022-12-20T08:10:56.210Z,9.61
2022-12-20T08:16:01.525Z,9.50
2022-12-20T08:21:04.063Z,9.72
2022-12-20T08:26:06.422Z,9.67
2022-12-20T08:31:10.107Z,9.90
2022-12-20T08:36:13.980Z,9.84
2022-12-20T08:41:17.335Z,9.99
2022-12-20T08:46:21.821Z,9.92
2022-12-20T08:51:24.217Z,9.87
2022-12-20T08:56:26.515Z,9.83
2022-12-20T09:01:35.945Z,10.00
2022-12-20T09:06:38.932Z,10.15
2022-12-20T09:11:41.227Z,10.19
2022-12-20T09:16:43.518Z,10.34
2022-12-20T09:21:45.719Z,10.23
2022-12-20T09:32:07.696Z,10.32
2022-12-20T09:37:09.901Z,10.39
2022-12-20T09:42:15.562Z,10.37
2022-12-20T09:47:24.949Z,10.47
2022-12-20T09:52:55.146Z,10.75
2022-12-20T09:58:15.807Z,10.93
2022-12-20T10:03:30.403Z,10.92
2022-12-20T10:08:55.890Z,10.88
2022-12-20T10:19:38.014Z,10.74
2022-12-20T10:24:41.929Z,10.51
2022-12-20T10:29:45.660Z,10.56
2022-12-20T10:34:57.764Z,10.50
2022-12-20T10:40:07.097Z,10.78
2022-12-20T10:45:16.261Z,10.86
2022-12-20T10:50:23.874Z,10.91
2022-12-20T10:55:44.450Z,10.89
2022-12-20T11:11:37.037Z,11.04
2022-12-20T11:16:40.787Z,10.99
2022-12-20T11:22:23.596Z,11.09
2022-12-20T11:27:40.271Z,11.00
2022-12-20T11:32:49.154Z,10.91
2022-12-20T11:38:15.921Z,10.81
2022-12-20T11:43:21.344Z,10.52
2022-12-20T11:48:42.051Z,10.40
2022-12-20T11:54:18.777Z,10.57
2022-12-20T12:05:51.687Z,10.87
2022-12-20T12:11:07.219Z,10.96
2022-12-20T12:16:14.204Z,11.07
2022-12-20T12:21:41.428Z,11.32
2022-12-20T12:26:43.846Z,11.04
2022-12-20T12:31:54.882Z,11.03
2022-12-20T12:37:25.164Z,10.89
2022-12-20T12:48:40.304Z,11.00
2022-12-20T12:53:44.427Z,11.10
2022-12-20T12:59:06.605Z,11.59
2022-12-20T13:04:22.926Z,11.67
2022-12-20T13:09:28.339Z,12.08
2022-12-20T13:14:30.538Z,12.27
2022-12-20T13:19:37.599Z,12.27
2022-12-20T13:25:04.243Z,12.26
2022-12-20T13:30:17.782Z,12.20
2022-12-20T13:35:28.615Z,12.03
2022-12-20T13:40:41.552Z,11.79
2022-12-20T13:45:48.250Z,11.49
2022-12-20T13:51:01.093Z,11.24
2022-12-20T13:56:28.085Z,11.33
2022-12-20T14:01:31.857Z,11.26
2022-12-20T14:06:34.970Z,11.13
2022-12-20T14:11:48.129Z,11.33
2022-12-20T14:16:50.406Z,11.28
2022-12-20T14:21:52.781Z,10.89
2022-12-20T14:26:55.988Z,10.66
2022-12-20T14:31:58.426Z,10.52
2022-12-20T14:37:31.742Z,10.54
2022-12-20T14:42:39.010Z,10.26
2022-12-20T14:48:00.058Z,10.42
2022-12-20T14:53:03.283Z,10.18
2022-12-20T14:58:29.387Z,10.21
2022-12-20T15:03:31.780Z,9.85
2022-12-20T15:08:38.305Z,9.90
2022-12-20T15:13:52.019Z,10.08
2022-12-20T15:18:57.143Z,9.78
2022-12-20T15:24:02.645Z,9.95
2022-12-20T15:29:05.741Z,9.84
2022-12-20T15:34:16.016Z,9.70
2022-12-20T15:39:18.767Z,9.63
2022-12-20T15:44:26.788Z,9.52
2022-12-20T15:49:31.369Z,9.49
2022-12-20T15:54:37.337Z,9.36
2022-12-20T16:05:02.176Z,9.31
2022-12-20T16:15:24.905Z,9.59
2022-12-20T16:20:28.098Z,9.52
2022-12-20T16:25:33.436Z,9.56
2022-12-20T16:30:35.727Z,9.58
2022-12-20T16:35:38.037Z,9.40
2022-12-20T16:40:40.536Z,9.36
2022-12-20T16:45:43.006Z,9.44
2022-12-20T16:50:45.967Z,9.33
2022-12-20T16:55:48.252Z,9.30
2022-12-20T17:00:51.521Z,9.37
2022-12-20T17:05:54.272Z,9.49
2022-12-20T17:10:56.511Z,9.23
2022-12-20T17:26:58.929Z,9.22
2022-12-20T17:32:01.344Z,9.33
2022-12-20T17:37:05.677Z,9.26
2022-12-20T17:42:16.421Z,9.09
2022-12-20T17:47:18.690Z,9.04
2022-12-20T17:52:25.060Z,8.93
2022-12-20T17:57:27.296Z,8.91
2022-12-20T18:02:29.696Z,8.84
2022-12-20T18:07:32.130Z,8.83
2022-12-20T18:12:37.642Z,8.69
2022-12-20T18:17:40.713Z,8.70
2022-12-20T18:22:43.493Z,8.48
2022-12-20T18:27:45.936Z,8.59
2022-12-20T18:32:48.723Z,8.28
2022-12-20T18:37:51.148Z,8.45
2022-12-20T18:42:53.667Z,8.36
2022-12-20T18:47:56.273Z,8.14
2022-12-20T18:53:01.600Z,8.10
2022-12-20T18:58:04.730Z,8.03
2022-12-20T19:03:07.427Z,7.86
2022-12-20T19:08:09.886Z,7.80
2022-12-20T19:13:12.401Z,7.69
2022-12-20T19:18:15.214Z,7.78
2022-12-20T19:23:17.543Z,7.40
2022-12-20T19:28:20.609Z,7.26
2022-12-20T19:33:24.022Z,7.46
2022-12-20T19:38:26.343Z,7.28
2022-12-20T19:43:29.551Z,7.32
2022-12-20T19:48:33.788Z,7.30
2022-12-20T19:53:36.980Z,7.15
2022-12-20T19:58:39.674Z,7.20
2022-12-20T20:03:42.817Z,7.19
2022-12-20T20:08:46.085Z,7.25
2022-12-20T20:13:48.621Z,7.21
2022-12-20T20:18:51.436Z,7.20
2022-12-20T20:23:55.357Z,6.80
2022-12-20T20:28:57.804Z,6.83
2022-12-20T20:34:00.059Z,6.55
2022-12-20T20:39:02.333Z,6.77
2022-12-20T20:44:04.855Z,6.85
2022-12-20T20:49:07.200Z,6.83
2022-12-20T20:54:09.486Z,6.32
2022-12-20T20:59:17.278Z,6.57
2022-12-20T21:04:20.464Z,6.65
2022-12-20T21:09:22.904Z,6.56
2022-12-20T21:14:51.592Z,6.65
2022-12-20T21:19:47.995Z,6.42
2022-12-20T21:24:50.617Z,6.21
2022-12-20T21:29:53.165Z,6.61
2022-12-20T21:35:14.725Z,6.52
2022-12-20T21:40:17.461Z,6.41
2022-12-20T21:45:19.804Z,6.26
2022-12-20T21:50:22.189Z,6.04
2022-12-20T21:55:25.721Z,6.29
2022-12-20T22:00:31.657Z,6.19
2022-12-20T22:05:33.989Z,6.36
2022-12-20T22:10:36.256Z,6.12
2022-12-20T22:15:39.623Z,5.98
2022-12-20T22:20:45.955Z,6.19
2022-12-20T22:25:48.280Z,6.24
2022-12-20T22:30:50.543Z,6.11
2022-12-20T22:35:53.143Z,5.93
2022-12-20T22:40:59.275Z,5.86
2022-12-20T22:51:23.814Z,5.83
2022-12-20T22:56:26.654Z,5.78
2022-12-20T23:06:48.476Z,5.76
2022-12-20T23:12:08.921Z,5.70
2022-12-20T23:17:15.524Z,5.57
2022-12-20T23:22:36.727Z,5.83
2022-12-20T23:27:40.300Z,5.84
2022-12-20T23:32:45.828Z,5.80
2022-12-20T23:37:48.755Z,5.71
2022-12-20T23:42:54.856Z,5.70
2022-12-20T23:47:57.254Z,5.75
2022-12-20T23:52:59.688Z,5.62
2022-12-20T23:58:01.869Z,5.54
